createdAt,value
2023-03-17T00:00:35.080Z,52314.87
2023-03-17T00:03:08.190Z,52309.64
2023-03-17T00:05:41.292Z,52311.25
2023-03-17T00:08:23.826Z,52306.03
2023-03-17T00:10:57.052Z,52292.36
2023-03-17T00:13:30.943Z,52285.93
2023-03-17T00:16:05.065Z,52304.42
2023-03-17T00:18:41.495Z,52295.18
2023-03-17T00:21:16.740Z,52295.58
2023-03-17T00:23:52.329Z,52287.14
2023-03-17T00:26:25.140Z,52299.59
2023-03-17T00:28:59.159Z,52281.51
2023-03-17T00:31:32.918Z,52293.16
2023-03-17T00:34:13.991Z,52294.77
2023-03-17T00:36:47.235Z,52289.15
2023-03-17T00:39:20.938Z,52294.77
2023-03-17T00:41:53.669Z,52286.34
2023-03-17T00:44:27.043Z,52300.40
2023-03-17T00:47:03.649Z,52290.36
2023-03-17T00:49:36.482Z,52283.52
2023-03-17T00:52:16.273Z,52290.36
2023-03-17T00:54:49.729Z,52288.35
2023-03-17T00:57:23.117Z,52300.40
2023-03-17T00:59:57.800Z,52302.41
2023-03-17T01:02:31.241Z,52285.13
2023-03-17T01:05:07.419Z,52291.16
2023-03-17T01:07:41.021Z,52294.38
2023-03-17T01:10:18.782Z,52283.52
2023-03-17T01:12:51.711Z,52303.21
2023-03-17T01:15:25.772Z,52291.16
2023-03-17T01:17:58.784Z,52296.79
2023-03-17T01:20:32.994Z,52295.98
2023-03-17T01:23:05.965Z,52294.78
2023-03-17T01:25:39.980Z,52299.60
2023-03-17T01:28:13.351Z,52287.54
2023-03-17T01:30:47.259Z,52295.98
2023-03-17T01:33:20.951Z,52289.95
2023-03-17T01:35:54.063Z,52303.62
2023-03-17T01:38:26.807Z,52297.19
2023-03-17T01:40:59.780Z,52300.40
2023-03-17T01:43:33.119Z,52293.17
2023-03-17T01:46:22.181Z,52292.77
2023-03-17T01:49:00.355Z,52293.16
2023-03-17T01:51:35.110Z,52299.60
2023-03-17T01:54:10.835Z,52314.87
2023-03-17T01:56:45.517Z,52295.18
2023-03-17T01:59:22.809Z,52310.85
2023-03-17T02:01:58.975Z,52286.74
2023-03-17T02:04:31.775Z,52308.04
2023-03-17T02:07:05.956Z,52306.03
2023-03-17T02:09:39.085Z,52296.38
2023-03-17T02:12:14.043Z,52306.02
2023-03-17T02:14:47.012Z,52298.39
2023-03-17T02:17:22.426Z,52291.16
2023-03-17T02:19:55.683Z,52305.23
2023-03-17T02:22:29.097Z,52321.70
2023-03-17T02:25:04.902Z,52302.01
2023-03-17T02:27:42.880Z,52300.40
2023-03-17T02:30:19.344Z,52305.23
2023-03-17T02:32:52.995Z,52310.85
2023-03-17T02:35:31.774Z,52301.21
2023-03-17T02:38:05.750Z,52314.07
2023-03-17T02:40:38.772Z,52301.61
2023-03-17T02:43:12.040Z,52310.05
2023-03-17T02:45:44.681Z,52314.07
2023-03-17T02:48:18.239Z,52304.82
2023-03-17T02:50:52.041Z,52300.80
2023-03-17T02:53:29.556Z,52320.90
2023-03-17T02:56:02.624Z,52319.29
2023-03-17T02:58:35.941Z,52301.20
2023-03-17T03:01:09.956Z,52312.05
2023-03-17T03:03:43.267Z,52325.72
2023-03-17T03:06:16.756Z,52308.84
2023-03-17T03:08:49.996Z,52305.62
2023-03-17T03:11:22.789Z,52321.30
2023-03-17T03:13:56.475Z,52318.09
2023-03-17T03:16:29.362Z,52291.16
2023-03-17T03:19:02.886Z,52304.82
2023-03-17T03:21:36.984Z,52310.85
2023-03-17T03:24:11.162Z,52307.64
2023-03-17T03:26:45.234Z,52314.46
2023-03-17T03:29:18.312Z,52300.40
2023-03-17T03:31:51.512Z,52325.72
2023-03-17T03:34:24.569Z,52316.88
2023-03-17T03:36:57.754Z,52307.63
2023-03-17T03:39:31.235Z,52316.88
2023-03-17T03:42:04.115Z,52306.03
2023-03-17T03:44:37.872Z,52313.66
2023-03-17T03:47:12.546Z,52313.66
2023-03-17T03:49:50.479Z,52308.04
2023-03-17T03:52:23.767Z,52301.61
2023-03-17T03:54:56.859Z,52326.93
2023-03-17T03:57:29.833Z,52294.37
2023-03-17T04:00:02.622Z,52318.08
2023-03-17T04:02:45.490Z,52310.85
2023-03-17T04:05:19.037Z,52311.66
2023-03-17T04:07:51.928Z,52308.84
2023-03-17T04:10:25.058Z,52312.86
2023-03-17T04:12:58.478Z,52320.50
2023-03-17T04:15:38.803Z,52310.85
2023-03-17T04:18:11.780Z,52300.40
2023-03-17T04:20:44.433Z,52318.48
2023-03-17T04:23:18.223Z,52313.66
2023-03-17T04:25:53.564Z,52320.09
2023-03-17T04:28:31.691Z,52301.21
2023-03-17T04:31:04.758Z,52313.66
2023-03-17T04:33:37.863Z,52311.65
2023-03-17T04:36:14.246Z,52307.63
2023-03-17T04:38:47.792Z,52305.23
2023-03-17T04:41:21.551Z,52307.23
2023-03-17T04:43:54.699Z,52307.63
2023-03-17T04:46:31.197Z,52293.57
2023-03-17T04:49:04.369Z,52304.42
2023-03-17T04:51:38.078Z,52316.48
2023-03-17T04:54:11.476Z,52299.20
2023-03-17T04:56:44.796Z,52296.79
2023-03-17T04:59:17.915Z,52296.79
2023-03-17T05:01:51.111Z,52318.48
2023-03-17T05:04:31.621Z,52299.60
2023-03-17T05:07:05.373Z,52300.40
2023-03-17T05:09:38.710Z,52309.64
2023-03-17T05:12:14.591Z,52303.21
2023-03-17T05:14:48.145Z,52303.21
2023-03-17T05:17:20.967Z,52304.82
2023-03-17T05:19:53.911Z,52320.90
2023-03-17T05:22:27.423Z,52302.81
2023-03-17T05:25:00.393Z,52308.44
2023-03-17T05:27:33.970Z,52318.89
2023-03-17T05:30:08.748Z,52314.47
2023-03-17T05:32:42.217Z,52304.82
2023-03-17T05:35:15.294Z,52324.11
2023-03-17T05:37:48.984Z,52318.89
2023-03-17T05:40:23.800Z,52293.17
2023-03-17T05:42:57.205Z,52298.39
2023-03-17T05:45:30.955Z,52326.93
2023-03-17T05:48:10.289Z,52318.89
2023-03-17T05:50:43.901Z,52318.89
2023-03-17T05:53:17.648Z,52317.68
2023-03-17T05:55:50.887Z,52305.23
2023-03-17T05:58:24.148Z,52309.24
2023-03-17T06:01:00.672Z,52306.83
2023-03-17T06:03:35.223Z,52309.24
2023-03-17T06:06:09.930Z,52314.87
2023-03-17T06:08:42.987Z,52309.24
2023-03-17T06:11:15.948Z,52316.88
2023-03-17T06:13:54.901Z,52313.26
2023-03-17T06:16:30.963Z,52321.70
2023-03-17T06:19:03.915Z,52310.05
2023-03-17T06:21:37.150Z,52305.63
2023-03-17T06:24:10.943Z,52315.67
2023-03-17T06:26:43.907Z,52304.42
2023-03-17T06:29:16.888Z,52300.00
2023-03-17T06:31:51.344Z,52303.21
2023-03-17T06:34:27.768Z,52322.10
2023-03-17T06:37:01.001Z,52301.61
2023-03-17T06:39:34.030Z,52316.07
2023-03-17T06:42:08.552Z,52306.43
2023-03-17T06:44:41.964Z,52299.20
2023-03-17T06:47:15.767Z,52306.43
2023-03-17T06:49:48.934Z,52292.37
2023-03-17T06:52:23.560Z,52299.20
2023-03-17T06:54:56.389Z,52306.43
2023-03-17T06:57:29.942Z,52306.02
2023-03-17T07:00:02.509Z,52320.49
2023-03-17T07:02:35.699Z,52293.57
2023-03-17T07:05:11.049Z,52306.84
2023-03-17T07:07:44.087Z,52291.56
2023-03-17T07:10:17.603Z,52305.23
2023-03-17T07:12:53.105Z,52284.73
2023-03-17T07:15:26.881Z,52287.95
2023-03-17T07:17:59.888Z,52294.77
2023-03-17T07:20:36.523Z,52294.77
2023-03-17T07:23:10.391Z,52288.34
2023-03-17T07:25:47.393Z,52306.02
2023-03-17T07:28:27.324Z,52281.11
2023-03-17T07:31:03.164Z,52314.07
2023-03-17T07:33:36.624Z,52292.36
2023-03-17T07:36:11.263Z,52302.01
2023-03-17T07:38:46.915Z,52296.38
2023-03-17T07:41:20.662Z,52301.21
2023-03-17T07:43:54.125Z,52289.95
2023-03-17T07:46:27.992Z,52297.59
2023-03-17T07:49:08.067Z,52291.96
2023-03-17T07:51:43.730Z,52300.80
2023-03-17T07:54:18.351Z,52282.71
2023-03-17T07:56:51.540Z,52277.10
2023-03-17T07:59:24.625Z,52273.48
2023-03-17T08:01:58.390Z,52281.51
2023-03-17T08:04:31.569Z,52281.92
2023-03-17T08:07:06.667Z,52280.71
2023-03-17T08:09:40.342Z,52282.32
2023-03-17T08:12:14.822Z,52277.09
2023-03-17T08:14:51.407Z,52288.34
2023-03-17T08:17:27.430Z,52273.88
2023-03-17T08:20:00.882Z,52267.85
2023-03-17T08:22:39.172Z,52273.48
2023-03-17T08:25:13.025Z,52267.05
2023-03-17T08:27:45.943Z,52276.69
2023-03-17T08:30:21.104Z,52278.70
2023-03-17T08:32:54.946Z,52274.28
2023-03-17T08:35:33.699Z,52269.86
2023-03-17T08:38:07.055Z,52267.85
2023-03-17T08:40:40.380Z,52281.91
2023-03-17T08:43:13.819Z,52273.88
2023-03-17T08:45:47.260Z,52258.61
2023-03-17T08:48:22.188Z,52267.45
2023-03-17T08:50:55.915Z,52267.45
2023-03-17T08:53:29.515Z,52279.91
2023-03-17T08:56:02.655Z,52269.45
2023-03-17T08:58:35.678Z,52271.87
2023-03-17T09:01:11.010Z,52286.74
2023-03-17T09:03:44.079Z,52270.66
2023-03-17T09:06:21.615Z,52286.74
2023-03-17T09:08:55.816Z,52276.29
2023-03-17T09:11:29.818Z,52270.26
2023-03-17T09:14:04.818Z,52266.64
2023-03-17T09:16:37.881Z,52272.68
2023-03-17T09:19:10.710Z,52262.63
2023-03-17T09:21:44.342Z,52260.62
2023-03-17T09:24:17.137Z,52264.63
2023-03-17T09:27:00.396Z,52269.05
2023-03-17T09:29:34.443Z,52273.07
2023-03-17T09:32:08.989Z,52281.51
2023-03-17T09:34:43.654Z,52273.88
2023-03-17T09:37:17.095Z,52262.22
2023-03-17T09:39:58.241Z,52274.28
2023-03-17T09:42:39.829Z,52279.10
2023-03-17T09:45:23.514Z,52240.93
2023-03-17T09:48:01.736Z,52275.89
2023-03-17T09:50:36.732Z,52262.23
2023-03-17T09:53:11.655Z,52267.85
2023-03-17T09:55:44.250Z,52275.49
2023-03-17T09:58:30.070Z,52276.70
2023-03-17T10:01:03.327Z,52274.28
2023-03-17T10:03:37.683Z,52272.68
2023-03-17T10:06:29.585Z,52267.45
2023-03-17T10:09:04.737Z,52266.65
2023-03-17T10:11:42.358Z,52252.58
2023-03-17T10:14:23.762Z,52270.66
2023-03-17T10:16:59.627Z,52258.61
2023-03-17T10:19:34.338Z,52261.82
2023-03-17T10:22:08.630Z,52259.81
2023-03-17T10:24:42.939Z,52268.25
2023-03-17T10:27:15.832Z,52260.62
2023-03-17T10:29:51.974Z,52283.52
2023-03-17T10:32:24.826Z,52315.27
2023-03-17T10:34:58.636Z,52295.58
2023-03-17T10:37:36.938Z,52307.63
2023-03-17T10:40:21.884Z,52294.38
2023-03-17T10:42:57.107Z,52308.44
2023-03-17T10:45:34.033Z,52299.20
2023-03-17T10:48:10.045Z,52289.55
2023-03-17T10:50:42.808Z,52301.21
2023-03-17T10:53:28.523Z,52301.61
2023-03-17T10:56:08.485Z,52293.57
2023-03-17T10:58:45.039Z,52291.56
2023-03-17T11:01:22.339Z,52281.91
2023-03-17T11:03:56.055Z,52300.00
2023-03-17T11:06:36.783Z,52326.93
2023-03-17T11:09:12.722Z,52316.88
2023-03-17T11:11:49.771Z,52305.22
2023-03-17T11:14:22.588Z,52293.97
2023-03-17T11:16:57.964Z,52291.16
2023-03-17T11:19:36.545Z,52301.21
2023-03-17T11:22:12.438Z,52291.96
2023-03-17T11:24:52.877Z,52288.34
2023-03-17T11:27:32.940Z,52304.42
2023-03-17T11:30:18.948Z,52280.31
2023-03-17T11:32:57.081Z,52298.80
2023-03-17T11:35:50.722Z,52285.53
2023-03-17T11:38:28.582Z,52293.57
2023-03-17T11:41:27.386Z,52312.86
2023-03-17T11:44:18.734Z,52297.19
2023-03-17T11:46:53.437Z,52300.00
2023-03-17T11:49:28.953Z,52295.98
2023-03-17T11:52:16.575Z,52316.48
2023-03-17T11:54:50.850Z,52297.18
2023-03-17T11:57:25.828Z,52301.21
2023-03-17T12:00:01.625Z,52294.37
2023-03-17T12:02:40.191Z,52310.05
2023-03-17T12:05:15.864Z,52308.44
2023-03-17T12:07:49.905Z,52299.20
2023-03-17T12:10:24.670Z,52300.00
2023-03-17T12:12:59.710Z,52297.59
2023-03-17T12:15:39.493Z,52299.20
2023-03-17T12:18:16.780Z,52291.16
2023-03-17T12:20:54.537Z,52308.44
2023-03-17T12:23:30.721Z,52302.41
2023-03-17T12:26:07.646Z,52293.57
2023-03-17T12:28:42.822Z,52297.59
2023-03-17T12:31:18.652Z,52288.74
2023-03-17T12:33:54.093Z,52289.55
2023-03-17T12:36:27.306Z,52311.65
2023-03-17T12:39:05.733Z,52302.01
2023-03-17T12:42:07.751Z,52280.71
2023-03-17T12:44:47.787Z,52296.79
2023-03-17T12:47:36.941Z,52297.19
2023-03-17T12:50:39.585Z,52281.11
2023-03-17T12:53:28.313Z,52293.98
2023-03-17T12:56:02.819Z,52310.05
2023-03-17T12:58:39.053Z,52288.34
2023-03-17T13:01:18.985Z,52294.37
2023-03-17T13:04:02.847Z,52300.40
2023-03-17T13:06:40.915Z,52300.00
2023-03-17T13:09:39.767Z,52300.80
2023-03-17T13:13:06.803Z,52322.50
2023-03-17T13:16:04.674Z,52307.23
2023-03-17T13:18:54.306Z,52301.61
2023-03-17T13:21:29.630Z,52306.43
2023-03-17T13:24:40.461Z,52292.36
2023-03-17T13:27:45.344Z,52306.03
2023-03-17T13:30:53.121Z,52304.82
2023-03-17T13:33:30.916Z,52295.58
2023-03-17T13:36:20.819Z,52300.40
2023-03-17T13:39:33.568Z,52310.85
2023-03-17T13:42:17.885Z,52286.74
2023-03-17T13:45:20.244Z,52312.05
2023-03-17T13:47:56.260Z,52287.54
2023-03-17T13:50:34.425Z,52302.41
2023-03-17T13:53:12.122Z,52315.67
2023-03-17T13:55:46.321Z,52306.83
2023-03-17T13:58:36.941Z,52296.79
2023-03-17T14:01:10.621Z,52298.79
2023-03-17T14:03:45.509Z,52309.64
2023-03-17T14:06:18.989Z,52308.44
2023-03-17T14:08:53.881Z,52314.87
2023-03-17T14:11:33.405Z,52321.70
2023-03-17T14:14:31.506Z,52314.47
2023-03-17T14:17:13.464Z,52308.84
2023-03-17T14:20:00.031Z,52318.89
2023-03-17T14:22:33.074Z,52317.28
2023-03-17T14:25:15.120Z,52315.67
2023-03-17T14:27:49.717Z,52297.99
2023-03-17T14:30:24.310Z,52314.06
2023-03-17T14:33:03.456Z,52318.09
2023-03-17T14:35:39.397Z,52301.61
2023-03-17T14:38:20.131Z,52296.79
2023-03-17T14:41:03.141Z,52314.87
2023-03-17T14:43:37.383Z,52308.84
2023-03-17T14:46:14.267Z,52309.24
2023-03-17T14:48:50.426Z,52325.72
2023-03-17T14:51:28.061Z,52308.44
2023-03-17T14:54:03.830Z,52322.10
2023-03-17T14:56:39.572Z,52325.32
2023-03-17T14:59:20.441Z,52315.68
2023-03-17T15:01:56.701Z,52330.14
2023-03-17T15:04:30.776Z,52331.34
2023-03-17T15:07:04.671Z,52330.94
2023-03-17T15:09:41.334Z,52330.95
2023-03-17T15:12:19.583Z,52331.74
2023-03-17T15:14:53.089Z,52312.46
2023-03-17T15:17:27.890Z,52332.95
2023-03-17T15:20:05.966Z,52326.93
2023-03-17T15:22:44.914Z,52324.52
2023-03-17T15:25:29.039Z,52324.11
2023-03-17T15:28:02.206Z,52332.15
2023-03-17T15:30:46.532Z,52322.91
2023-03-17T15:33:23.925Z,52328.93
2023-03-17T15:36:02.030Z,52332.55
2023-03-17T15:38:39.133Z,52315.27
2023-03-17T15:41:14.871Z,52345.01
2023-03-17T15:43:49.864Z,52323.30
2023-03-17T15:46:27.747Z,52329.74
2023-03-17T15:49:07.146Z,52327.73
2023-03-17T15:51:40.307Z,52325.32
2023-03-17T15:54:17.945Z,52336.97
2023-03-17T15:56:52.047Z,52323.71
2023-03-17T15:59:24.853Z,52335.77
2023-03-17T16:01:58.844Z,52343.40
2023-03-17T16:04:31.649Z,52328.53
2023-03-17T16:07:10.883Z,52340.99
2023-03-17T16:09:44.870Z,52330.95
2023-03-17T16:12:17.945Z,52346.22
2023-03-17T16:14:55.353Z,52338.98
2023-03-17T16:17:32.505Z,52337.37
2023-03-17T16:20:06.681Z,52327.32
2023-03-17T16:22:43.426Z,52333.35
2023-03-17T16:25:25.058Z,52335.36
2023-03-17T16:28:03.197Z,52338.18
2023-03-17T16:30:37.132Z,52344.61
2023-03-17T16:33:16.401Z,52331.75
2023-03-17T16:35:52.591Z,52360.68
2023-03-17T16:38:27.983Z,52336.57
2023-03-17T16:41:07.387Z,52342.60
2023-03-17T16:43:40.945Z,52362.70
2023-03-17T16:46:13.960Z,52345.01
2023-03-17T16:48:48.561Z,52356.26
2023-03-17T16:51:21.376Z,52342.20
2023-03-17T16:53:55.196Z,52333.76
2023-03-17T16:56:29.026Z,52353.45
2023-03-17T16:59:03.115Z,52361.49
2023-03-17T17:01:36.883Z,52343.40
2023-03-17T17:04:13.475Z,52360.68
2023-03-17T17:06:47.264Z,52347.43
2023-03-17T17:09:20.518Z,52337.38
2023-03-17T17:11:53.293Z,52353.85
2023-03-17T17:14:28.049Z,52359.88
2023-03-17T17:17:01.132Z,52347.42
2023-03-17T17:19:34.328Z,52354.66
2023-03-17T17:22:07.737Z,52358.27
2023-03-17T17:24:41.226Z,52345.41
2023-03-17T17:27:15.814Z,52358.27
2023-03-17T17:29:49.071Z,52355.86
2023-03-17T17:32:23.810Z,52349.83
2023-03-17T17:34:57.782Z,52353.05
2023-03-17T17:37:31.457Z,52370.73
2023-03-17T17:40:10.335Z,52361.89
2023-03-17T17:42:46.432Z,52345.41
2023-03-17T17:45:22.063Z,52352.24
2023-03-17T17:47:55.268Z,52357.07
2023-03-17T17:50:29.570Z,52351.84
2023-03-17T17:53:05.854Z,52358.27
2023-03-17T17:55:39.155Z,52358.68
2023-03-17T17:58:12.222Z,52351.84
2023-03-17T18:00:45.507Z,52374.35
2023-03-17T18:03:23.211Z,52345.81
2023-03-17T18:05:56.612Z,52369.12
2023-03-17T18:08:30.410Z,52351.04
2023-03-17T18:11:04.370Z,52386.80
2023-03-17T18:13:42.188Z,52369.93
2023-03-17T18:16:16.651Z,52354.25
2023-03-17T18:18:50.184Z,52377.96
2023-03-17T18:21:23.549Z,52369.12
2023-03-17T18:23:57.413Z,52373.54
2023-03-17T18:26:30.933Z,52367.91
2023-03-17T18:29:04.069Z,52356.66
2023-03-17T18:31:42.262Z,52360.28
2023-03-17T18:34:17.939Z,52355.46
2023-03-17T18:36:57.275Z,52377.16
2023-03-17T18:39:31.396Z,52367.12
2023-03-17T18:42:04.564Z,52374.35
2023-03-17T18:44:37.176Z,52361.48
2023-03-17T18:47:16.614Z,52370.32
2023-03-17T18:49:51.730Z,52386.80
2023-03-17T18:52:25.124Z,52377.56
2023-03-17T18:54:58.297Z,52355.05
2023-03-17T18:57:31.390Z,52356.26
2023-03-17T19:00:05.399Z,52367.51
2023-03-17T19:02:44.110Z,52347.42
2023-03-17T19:05:16.905Z,52368.72
2023-03-17T19:08:03.490Z,52370.73
2023-03-17T19:10:36.506Z,52373.95
2023-03-17T19:13:10.345Z,52364.70
2023-03-17T19:15:43.348Z,52374.35
2023-03-17T19:18:18.523Z,52380.77
2023-03-17T19:20:51.511Z,52377.56
2023-03-17T19:23:32.886Z,52369.52
2023-03-17T19:26:06.264Z,52375.15
2023-03-17T19:28:39.075Z,52369.52
2023-03-17T19:31:12.166Z,52357.46
2023-03-17T19:33:44.918Z,52364.70
2023-03-17T19:36:20.519Z,52357.46
2023-03-17T19:38:57.183Z,52364.30
2023-03-17T19:41:34.371Z,52370.33
2023-03-17T19:44:07.091Z,52368.72
2023-03-17T19:46:40.037Z,52367.51
2023-03-17T19:49:14.178Z,52369.93
2023-03-17T19:51:47.440Z,52368.72
2023-03-17T19:54:23.506Z,52389.62
2023-03-17T19:56:59.917Z,52371.13
2023-03-17T19:59:37.663Z,52365.11
2023-03-17T20:02:12.048Z,52368.72
2023-03-17T20:04:44.901Z,52363.50
2023-03-17T20:07:19.816Z,52367.51
2023-03-17T20:09:54.377Z,52372.74
2023-03-17T20:12:28.379Z,52377.96
2023-03-17T20:15:01.777Z,52377.96
2023-03-17T20:17:35.484Z,52363.90
2023-03-17T20:20:18.555Z,52376.36
2023-03-17T20:22:52.114Z,52371.94
2023-03-17T20:25:24.981Z,52378.77
2023-03-17T20:28:04.573Z,52377.56
2023-03-17T20:30:37.292Z,52372.34
2023-03-17T20:33:13.733Z,52367.11
2023-03-17T20:35:48.232Z,52385.20
2023-03-17T20:38:21.505Z,52361.09
2023-03-17T20:40:54.313Z,52383.19
2023-03-17T20:43:28.202Z,52377.56
2023-03-17T20:46:01.721Z,52395.64
2023-03-17T20:48:36.318Z,52380.78
2023-03-17T20:51:15.853Z,52363.89
2023-03-17T20:53:53.687Z,52371.93
2023-03-17T20:56:28.593Z,52377.56
2023-03-17T20:59:05.938Z,52379.57
2023-03-17T21:01:40.812Z,52373.54
2023-03-17T21:04:17.857Z,52379.57
2023-03-17T21:06:50.785Z,52390.42
2023-03-17T21:09:23.741Z,52383.19
2023-03-17T21:11:56.859Z,52382.38
2023-03-17T21:14:31.742Z,52384.39
2023-03-17T21:17:05.349Z,52381.18
2023-03-17T21:19:40.770Z,52374.35
2023-03-17T21:22:13.804Z,52379.17
2023-03-17T21:24:46.849Z,52382.79
2023-03-17T21:27:19.582Z,52382.39
2023-03-17T21:29:52.475Z,52389.21
2023-03-17T21:32:25.301Z,52368.31
2023-03-17T21:34:58.453Z,52392.84
2023-03-17T21:37:31.415Z,52380.38
2023-03-17T21:40:07.464Z,52379.97
2023-03-17T21:42:41.081Z,52387.21
2023-03-17T21:45:15.841Z,52367.91
2023-03-17T21:47:48.792Z,52384.39
2023-03-17T21:50:22.831Z,52375.95
2023-03-17T21:52:55.596Z,52386.80
2023-03-17T21:55:28.666Z,52377.56
2023-03-17T21:58:03.929Z,52381.58
2023-03-17T22:00:45.171Z,52392.43
2023-03-17T22:03:18.888Z,52381.18
2023-03-17T22:05:52.848Z,52390.42
2023-03-17T22:08:25.788Z,52371.54
2023-03-17T22:10:58.531Z,52381.98
2023-03-17T22:13:31.729Z,52378.36
2023-03-17T22:16:09.492Z,52381.58
2023-03-17T22:18:42.236Z,52369.52
2023-03-17T22:21:14.910Z,52378.77
2023-03-17T22:23:50.622Z,52399.26
2023-03-17T22:26:24.347Z,52378.77
2023-03-17T22:29:03.005Z,52383.19
2023-03-17T22:31:36.612Z,52372.74
2023-03-17T22:34:10.301Z,52395.64
2023-03-17T22:36:43.521Z,52381.58
2023-03-17T22:39:16.522Z,52384.79
2023-03-17T22:41:52.067Z,52401.68
2023-03-17T22:44:25.855Z,52401.27
2023-03-17T22:46:58.909Z,52393.24
2023-03-17T22:49:32.417Z,52396.85
2023-03-17T22:52:06.291Z,52414.13
2023-03-17T22:54:41.993Z,52386.00
2023-03-17T22:57:15.268Z,52391.63
2023-03-17T22:59:52.628Z,52384.39
2023-03-17T23:02:25.870Z,52393.24
2023-03-17T23:04:59.037Z,52393.23
2023-03-17T23:07:47.873Z,52381.58
2023-03-17T23:10:24.830Z,52405.70
2023-03-17T23:12:59.952Z,52379.97
2023-03-17T23:15:34.645Z,52390.82
2023-03-17T23:18:07.683Z,52394.44
2023-03-17T23:20:41.011Z,52387.61
2023-03-17T23:23:14.117Z,52381.18
2023-03-17T23:25:47.720Z,52406.09
2023-03-17T23:28:21.750Z,52392.03
2023-03-17T23:30:54.702Z,52396.45
2023-03-17T23:33:29.774Z,52423.77
2023-03-17T23:36:02.704Z,52383.19
2023-03-17T23:38:35.789Z,52392.03
2023-03-17T23:41:08.926Z,52399.66
2023-03-17T23:43:42.147Z,52392.03
2023-03-17T23:46:15.310Z,52392.03
2023-03-17T23:48:49.830Z,52399.66
2023-03-17T23:51:24.372Z,52397.66
2023-03-17T23:53:58.391Z,52392.84
2023-03-17T23:56:33.826Z,52397.25
2023-03-17T23:59:08.330Z,52394.84
